createdAt,value
2022-10-08T00:04:46.956Z,53.57
2022-10-08T00:14:57.265Z,52.03
2022-10-08T00:20:03.172Z,54.03
2022-10-08T00:25:10.668Z,54.83
2022-10-08T00:35:19.893Z,52.27
2022-10-08T00:40:26.087Z,51.23
2022-10-08T00:45:32.201Z,51.70
2022-10-08T00:50:39.895Z,50.52
2022-10-08T00:55:45.569Z,51.57
2022-10-08T01:00:52.002Z,50.97
2022-10-08T01:06:12.464Z,52.65
2022-10-08T01:11:30.727Z,53.60
2022-10-08T01:16:46.809Z,53.07
2022-10-08T01:22:07.552Z,52.00
2022-10-08T01:27:43.838Z,52.67
2022-10-08T01:32:52.469Z,52.47
2022-10-08T01:38:00.797Z,51.50
2022-10-08T01:43:09.432Z,50.50
2022-10-08T01:48:17.710Z,51.93
2022-10-08T01:53:27.321Z,51.53
2022-10-08T01:58:55.620Z,51.63
2022-10-08T02:04:18.876Z,52.33
2022-10-08T02:09:27.620Z,51.50
2022-10-08T02:14:36.659Z,52.13
2022-10-08T02:19:47.260Z,52.57
2022-10-08T02:24:57.231Z,53.03
2022-10-08T02:30:06.493Z,51.23
2022-10-08T02:35:20.129Z,52.00
2022-10-08T02:40:27.681Z,53.35
2022-10-08T02:45:35.718Z,52.73
2022-10-08T02:50:43.173Z,53.13
2022-10-08T02:56:04.403Z,54.33
2022-10-08T03:01:27.202Z,51.97
2022-10-08T03:06:34.576Z,52.33
2022-10-08T03:11:40.653Z,54.90
2022-10-08T03:16:48.689Z,54.60
2022-10-08T03:21:57.003Z,54.07
2022-10-08T03:27:02.877Z,52.83
2022-10-08T03:32:07.868Z,51.47
2022-10-08T03:37:13.475Z,51.63
2022-10-08T03:42:19.666Z,51.27
2022-10-08T03:47:24.659Z,51.57
2022-10-08T03:52:31.726Z,52.37
2022-10-08T03:57:37.381Z,51.68
2022-10-08T04:02:43.508Z,52.07
2022-10-08T04:07:49.367Z,51.65
2022-10-08T04:12:55.097Z,52.10
2022-10-08T04:18:00.661Z,52.27
2022-10-08T04:23:05.718Z,51.73
2022-10-08T04:28:11.720Z,50.87
2022-10-08T04:33:16.776Z,51.50
2022-10-08T04:38:23.333Z,49.90
2022-10-08T04:43:29.501Z,49.57
2022-10-08T04:48:35.577Z,51.20
2022-10-08T04:53:51.342Z,51.57
2022-10-08T04:58:58.900Z,51.50
2022-10-08T05:04:03.787Z,50.47
2022-10-08T05:09:10.237Z,37.93
2022-10-08T05:14:15.894Z,50.73
2022-10-08T05:19:22.702Z,50.40
2022-10-08T05:24:29.061Z,50.45
2022-10-08T05:29:35.840Z,50.07
2022-10-08T05:34:41.009Z,50.20
2022-10-08T05:39:46.368Z,49.97
2022-10-08T05:44:52.289Z,49.40
2022-10-08T05:49:57.593Z,49.83
2022-10-08T05:55:03.056Z,49.37
2022-10-08T06:00:08.889Z,49.77
2022-10-08T06:05:14.896Z,50.27
2022-10-08T06:10:20.563Z,50.35
2022-10-08T06:15:25.992Z,50.43
2022-10-08T06:20:32.208Z,52.27
2022-10-08T06:25:40.127Z,49.60
2022-10-08T06:30:45.807Z,50.80
2022-10-08T06:35:51.699Z,50.35
2022-10-08T06:40:59.172Z,50.00
2022-10-08T06:46:07.362Z,50.23
2022-10-08T06:51:15.885Z,49.77
2022-10-08T06:56:22.412Z,50.85
2022-10-08T07:01:33.277Z,50.57
2022-10-08T07:06:36.717Z,50.87
2022-10-08T07:11:42.383Z,52.10
2022-10-08T07:16:47.695Z,50.10
2022-10-08T07:21:56.811Z,49.98
2022-10-08T07:27:00.670Z,50.73
2022-10-08T07:32:06.375Z,50.77
2022-10-08T07:37:11.940Z,50.80
2022-10-08T07:42:17.096Z,50.77
2022-10-08T07:47:22.041Z,50.73
2022-10-08T07:52:29.040Z,49.93
2022-10-08T07:57:34.504Z,50.83
2022-10-08T08:02:39.940Z,50.60
2022-10-08T08:07:47.568Z,50.33
2022-10-08T08:12:53.854Z,50.77
2022-10-08T08:17:58.804Z,51.40
2022-10-08T08:23:04.066Z,51.87
2022-10-08T08:28:09.863Z,50.17
2022-10-08T08:33:16.113Z,50.47
2022-10-08T08:38:22.392Z,50.17
2022-10-08T08:43:28.057Z,49.77
2022-10-08T08:48:37.220Z,50.13
2022-10-08T08:53:43.074Z,51.43
2022-10-08T08:58:52.220Z,51.48
2022-10-08T09:04:00.738Z,51.30
2022-10-08T09:09:23.524Z,54.23
2022-10-08T09:14:41.106Z,53.10
2022-10-08T09:19:48.435Z,53.63
2022-10-08T09:25:01.686Z,52.93
2022-10-08T09:30:09.849Z,53.60
2022-10-08T09:35:17.059Z,54.00
2022-10-08T09:40:24.656Z,54.97
2022-10-08T09:45:44.700Z,54.90
2022-10-08T09:51:07.280Z,54.50
2022-10-08T09:56:15.035Z,54.13
2022-10-08T10:01:20.550Z,52.67
2022-10-08T10:06:35.953Z,52.47
2022-10-08T10:11:45.507Z,53.23
2022-10-08T10:16:53.891Z,52.87
2022-10-08T10:22:15.190Z,52.87
2022-10-08T10:27:29.381Z,53.40
2022-10-08T10:32:38.286Z,52.90
2022-10-08T10:37:49.976Z,52.93
2022-10-08T10:43:00.816Z,53.80
2022-10-08T10:48:07.866Z,52.47
2022-10-08T10:53:19.149Z,53.83
2022-10-08T10:58:30.002Z,53.93
2022-10-08T11:03:53.149Z,50.60
2022-10-08T11:09:01.711Z,51.30
2022-10-08T11:14:31.646Z,51.50
2022-10-08T11:19:42.907Z,51.10
2022-10-08T11:24:54.217Z,50.17
2022-10-08T11:30:15.419Z,53.20
2022-10-08T11:35:41.518Z,51.77
2022-10-08T11:40:52.102Z,51.20
2022-10-08T11:46:30.123Z,50.53
2022-10-08T11:51:39.796Z,51.33
2022-10-08T11:56:52.501Z,50.53
2022-10-08T12:02:04.082Z,51.23
2022-10-08T12:07:31.912Z,51.30
2022-10-08T12:12:57.336Z,51.83
2022-10-08T12:18:16.313Z,51.60
2022-10-08T12:23:26.569Z,51.15
2022-10-08T12:28:37.534Z,50.03
2022-10-08T12:33:43.096Z,50.37
2022-10-08T12:39:14.120Z,50.90
2022-10-08T12:44:38.099Z,50.92
2022-10-08T12:50:01.351Z,50.53
2022-10-08T12:55:07.433Z,51.23
2022-10-08T13:00:16.087Z,51.18
2022-10-08T13:05:36.398Z,51.07
2022-10-08T13:10:43.189Z,50.67
2022-10-08T13:15:51.609Z,50.37
2022-10-08T13:21:06.091Z,51.17
2022-10-08T13:26:47.403Z,51.10
2022-10-08T13:32:07.202Z,50.40
2022-10-08T13:37:32.287Z,51.53
2022-10-08T13:42:42.984Z,51.77
2022-10-08T13:47:48.784Z,51.57
2022-10-08T13:53:00.582Z,51.37
2022-10-08T13:58:08.067Z,51.67
2022-10-08T14:03:14.846Z,51.93
2022-10-08T14:08:23.887Z,51.50
2022-10-08T14:13:30.272Z,51.88
2022-10-08T14:18:36.589Z,52.83
2022-10-08T14:23:42.049Z,51.65
2022-10-08T14:28:48.701Z,52.48
2022-10-08T14:33:54.509Z,51.58
2022-10-08T14:39:01.206Z,51.60
2022-10-08T14:44:07.018Z,52.67
2022-10-08T14:49:12.738Z,52.73
2022-10-08T14:54:18.874Z,52.17
2022-10-08T15:04:28.506Z,51.95
2022-10-08T15:09:34.626Z,51.37
2022-10-08T15:14:39.531Z,52.43
2022-10-08T15:19:45.094Z,51.00
2022-10-08T15:24:49.945Z,51.67
2022-10-08T15:29:55.547Z,50.83
2022-10-08T15:35:01.476Z,50.70
2022-10-08T15:40:08.594Z,50.33
2022-10-08T15:45:13.755Z,49.73
2022-10-08T15:50:19.398Z,50.13
2022-10-08T15:55:26.434Z,49.53
2022-10-08T16:00:43.942Z,49.70
2022-10-08T16:05:49.203Z,48.47
2022-10-08T16:10:58.107Z,48.40
2022-10-08T16:21:08.651Z,47.88
2022-10-08T16:26:17.135Z,48.83
2022-10-08T16:31:22.648Z,47.80
2022-10-08T16:36:40.602Z,47.97
2022-10-08T16:41:46.752Z,48.53
2022-10-08T16:46:54.191Z,48.40
2022-10-08T16:52:04.950Z,51.17
2022-10-08T16:57:10.787Z,51.23
2022-10-08T17:02:16.628Z,49.67
2022-10-08T17:07:23.198Z,47.62
2022-10-08T17:12:28.560Z,47.23
2022-10-08T17:17:33.351Z,47.43
2022-10-08T17:22:38.457Z,46.63
2022-10-08T17:27:43.416Z,46.20
2022-10-08T17:32:48.934Z,54.17
2022-10-08T17:37:55.558Z,49.77
2022-10-08T17:43:01.023Z,49.40
2022-10-08T17:48:05.968Z,49.40
2022-10-08T17:53:12.664Z,49.07
2022-10-08T17:58:17.995Z,48.17
2022-10-08T18:03:23.445Z,48.87
2022-10-08T18:08:29.459Z,47.07
2022-10-08T18:13:34.541Z,46.70
2022-10-08T18:18:39.964Z,45.77
2022-10-08T18:23:47.068Z,45.48
2022-10-08T18:28:56.727Z,45.63
2022-10-08T18:34:04.411Z,46.00
2022-10-08T18:39:17.063Z,45.50
2022-10-08T18:44:26.625Z,46.05
2022-10-08T18:49:33.857Z,45.73
2022-10-08T18:54:39.347Z,46.90
2022-10-08T18:59:44.649Z,46.73
2022-10-08T19:04:51.175Z,46.50
2022-10-08T19:09:57.520Z,49.98
2022-10-08T19:15:04.558Z,45.70
2022-10-08T19:20:10.286Z,45.60
2022-10-08T19:25:15.736Z,45.17
2022-10-08T19:30:26.618Z,45.77
2022-10-08T19:35:31.079Z,46.23
2022-10-08T19:40:36.514Z,45.93
2022-10-08T19:45:42.317Z,46.50
2022-10-08T19:50:47.355Z,45.63
2022-10-08T19:55:55.179Z,46.57
2022-10-08T20:01:08.514Z,46.27
2022-10-08T20:06:20.369Z,45.70
2022-10-08T20:11:24.765Z,45.88
2022-10-08T20:16:38.391Z,46.67
2022-10-08T20:21:44.187Z,46.17
2022-10-08T20:26:50.362Z,45.97
2022-10-08T20:31:59.249Z,46.30
2022-10-08T20:37:05.924Z,46.87
2022-10-08T20:42:11.455Z,46.08
2022-10-08T20:47:18.251Z,46.50
2022-10-08T20:52:23.817Z,46.17
2022-10-08T20:57:30.503Z,46.30
2022-10-08T21:02:37.397Z,46.53
2022-10-08T21:07:42.966Z,46.20
2022-10-08T21:12:49.409Z,46.02
2022-10-08T21:17:55.635Z,45.73
2022-10-08T21:23:00.470Z,46.13
2022-10-08T21:28:07.163Z,45.93
2022-10-08T21:38:17.372Z,45.20
2022-10-08T21:43:22.700Z,45.00
2022-10-08T21:48:29.943Z,45.07
2022-10-08T21:58:43.717Z,43.73
2022-10-08T22:03:48.771Z,44.90
2022-10-08T22:08:56.107Z,44.73
2022-10-08T22:14:01.334Z,47.87
2022-10-08T22:19:07.202Z,43.87
2022-10-08T22:24:13.140Z,44.47
2022-10-08T22:29:18.025Z,44.55
2022-10-08T22:34:22.830Z,43.67
2022-10-08T22:39:28.533Z,43.53
2022-10-08T22:44:34.013Z,44.47
2022-10-08T22:49:39.456Z,45.80
2022-10-08T22:54:44.818Z,43.73
2022-10-08T22:59:50.993Z,44.42
2022-10-08T23:04:56.559Z,44.27
2022-10-08T23:10:02.019Z,43.37
2022-10-08T23:15:07.556Z,44.10
2022-10-08T23:20:13.318Z,43.70
2022-10-08T23:25:18.177Z,43.23
2022-10-08T23:30:42.092Z,43.73
2022-10-08T23:40:35.712Z,43.30
2022-10-08T23:45:41.642Z,44.03
2022-10-08T23:50:51.942Z,43.00
2022-10-08T23:55:57.221Z,43.57
